createdAt,value
2022-08-28T00:02:17.406Z,95090.39
2022-08-28T00:04:46.393Z,95089.31
2022-08-28T00:07:18.397Z,95093.81
2022-08-28T00:09:47.501Z,95094.38
2022-08-28T00:12:21.124Z,95092.12
2022-08-28T00:14:50.760Z,95090.69
2022-08-28T00:17:20.202Z,95090.48
2022-08-28T00:19:50.593Z,95093.52
2022-08-28T00:22:19.650Z,95093.45
2022-08-28T00:24:48.511Z,95096.03
2022-08-28T00:27:36.505Z,95096.09
2022-08-28T00:30:07.259Z,95092.77
2022-08-28T00:32:38.475Z,95093.17
2022-08-28T00:35:07.696Z,95095.38
2022-08-28T00:37:42.755Z,95092.52
2022-08-28T00:40:30.499Z,95091.77
2022-08-28T00:43:06.515Z,95090.21
2022-08-28T00:45:40.074Z,95089.96
2022-08-28T00:48:11.578Z,95091.01
2022-08-28T00:51:01.417Z,95093.43
2022-08-28T00:53:32.996Z,95089.13
2022-08-28T00:56:10.354Z,95087.60
2022-08-28T00:58:46.784Z,95082.52
2022-08-28T01:01:16.758Z,95080.90
2022-08-28T01:03:46.802Z,95075.15
2022-08-28T01:06:20.163Z,95078.00
2022-08-28T01:08:50.756Z,95078.27
2022-08-28T01:11:21.643Z,95079.83
2022-08-28T01:13:54.429Z,95081.36
2022-08-28T01:16:32.960Z,95083.91
2022-08-28T01:19:13.722Z,95079.45
2022-08-28T01:21:51.015Z,95083.14
2022-08-28T01:24:21.090Z,95085.23
2022-08-28T01:26:51.541Z,95088.15
2022-08-28T01:29:22.025Z,95085.18
2022-08-28T01:31:59.161Z,95089.35
2022-08-28T01:34:32.084Z,95090.02
2022-08-28T01:37:04.249Z,95092.06
2022-08-28T01:39:38.567Z,95091.90
2022-08-28T01:42:09.940Z,95089.73
2022-08-28T01:44:40.870Z,95090.71
2022-08-28T01:47:12.031Z,95090.21
2022-08-28T01:49:43.770Z,95082.16
2022-08-28T01:52:12.653Z,95086.23
2022-08-28T01:54:42.023Z,95081.91
2022-08-28T01:57:11.586Z,95080.73
2022-08-28T01:59:47.079Z,95085.11
2022-08-28T02:02:18.081Z,95078.66
2022-08-28T02:04:50.443Z,95083.45
2022-08-28T02:07:19.886Z,95086.43
2022-08-28T02:09:56.934Z,95084.14
2022-08-28T02:12:30.209Z,95083.85
2022-08-28T02:15:02.476Z,95087.63
2022-08-28T02:17:33.593Z,95084.44
2022-08-28T02:20:07.446Z,95084.48
2022-08-28T02:22:37.330Z,95081.27
2022-08-28T02:25:07.401Z,95081.82
2022-08-28T02:27:36.584Z,95077.20
2022-08-28T02:30:12.859Z,95081.11
2022-08-28T02:32:41.942Z,95076.42
2022-08-28T02:35:19.062Z,95077.89
2022-08-28T02:37:49.729Z,95078.31
2022-08-28T02:40:22.444Z,95081.56
2022-08-28T02:42:54.121Z,95084.67
2022-08-28T02:45:29.360Z,95084.98
2022-08-28T02:48:01.624Z,95089.04
2022-08-28T02:50:30.856Z,95088.64
2022-08-28T02:53:05.093Z,95089.52
2022-08-28T02:55:40.729Z,95091.44
2022-08-28T02:58:09.724Z,95092.77
2022-08-28T03:00:38.810Z,95098.86
2022-08-28T03:03:08.566Z,95093.19
2022-08-28T03:05:43.178Z,95086.95
2022-08-28T03:08:12.649Z,95090.73
2022-08-28T03:10:45.745Z,95085.79
2022-08-28T03:13:26.495Z,95087.94
2022-08-28T03:15:58.862Z,95087.86
2022-08-28T03:18:30.240Z,95088.89
2022-08-28T03:21:00.798Z,95095.21
2022-08-28T03:23:29.973Z,95096.45
2022-08-28T03:26:12.325Z,95097.44
2022-08-28T03:28:46.567Z,95103.33
2022-08-28T03:31:22.950Z,95106.25
2022-08-28T03:33:54.060Z,95113.52
2022-08-28T03:36:28.381Z,95118.91
2022-08-28T03:38:59.444Z,95121.50
2022-08-28T03:41:30.604Z,95124.97
2022-08-28T03:44:02.206Z,95123.97
2022-08-28T03:46:35.192Z,95121.77
2022-08-28T03:49:08.726Z,95120.55
2022-08-28T03:51:39.020Z,95122.77
2022-08-28T03:54:07.866Z,95119.26
2022-08-28T03:56:36.422Z,95122.05
2022-08-28T03:59:12.006Z,95119.98
2022-08-28T04:01:42.068Z,95124.75
2022-08-28T04:04:11.696Z,95131.84
2022-08-28T04:06:44.158Z,95132.31
2022-08-28T04:09:20.801Z,95134.29
2022-08-28T04:11:53.977Z,95129.91
2022-08-28T04:14:23.817Z,95134.18
2022-08-28T04:16:57.556Z,95131.34
2022-08-28T04:19:29.897Z,95135.67
2022-08-28T04:22:01.206Z,95134.61
2022-08-28T04:24:29.879Z,95136.95
2022-08-28T04:27:00.126Z,95138.32
2022-08-28T04:29:29.890Z,95139.87
2022-08-28T04:32:02.939Z,95138.73
2022-08-28T04:34:45.228Z,95139.31
2022-08-28T04:37:18.773Z,95139.95
2022-08-28T04:39:50.789Z,95139.36
2022-08-28T04:42:21.888Z,95133.61
2022-08-28T04:45:01.632Z,95132.38
2022-08-28T04:47:35.313Z,95133.95
2022-08-28T04:50:08.725Z,95129.79
2022-08-28T04:52:40.239Z,95136.73
2022-08-28T04:55:12.304Z,95132.17
2022-08-28T04:57:41.626Z,95136.83
2022-08-28T05:00:12.448Z,95135.50
2022-08-28T05:02:45.556Z,95138.46
2022-08-28T17:27:55.160Z,95174.55
2022-08-28T18:26:14.418Z,95208.27
2022-08-28T18:28:47.748Z,95210.18
2022-08-28T18:31:20.357Z,95212.08
2022-08-28T18:33:56.467Z,95211.38
2022-08-28T18:36:45.077Z,95211.63
2022-08-28T18:39:22.622Z,95216.50
2022-08-28T18:42:03.373Z,95219.23
2022-08-28T18:44:41.705Z,95220.65
2022-08-28T18:47:10.886Z,95220.80
2022-08-28T18:49:43.710Z,95218.89
2022-08-28T18:52:13.191Z,95217.37
2022-08-28T18:54:48.467Z,95214.33
2022-08-28T18:57:19.180Z,95209.92
2022-08-28T18:59:53.236Z,95214.85
2022-08-28T19:02:24.045Z,95209.55
2022-08-28T19:04:56.595Z,95212.58
2022-08-28T19:07:25.992Z,95214.02
2022-08-28T19:09:58.177Z,95220.41
2022-08-28T19:12:29.662Z,95218.29
2022-08-28T19:15:11.277Z,95218.95
2022-08-28T19:17:45.264Z,95219.86
2022-08-28T19:20:20.860Z,95226.65
2022-08-28T19:22:50.947Z,95226.47
2022-08-28T19:25:28.663Z,95229.02
2022-08-28T19:28:05.509Z,95228.05
2022-08-28T19:30:36.764Z,95234.29
2022-08-28T19:33:12.920Z,95229.52
2022-08-28T19:35:45.847Z,95233.66
2022-08-28T19:38:15.325Z,95234.73
2022-08-28T19:40:47.029Z,95239.25
2022-08-28T19:43:16.803Z,95234.53
2022-08-28T19:45:50.570Z,95236.94
2022-08-28T19:48:23.051Z,95240.48
2022-08-28T19:51:17.267Z,95237.66
2022-08-28T19:53:56.712Z,95240.20
2022-08-28T19:56:29.987Z,95242.27
2022-08-28T19:59:03.610Z,95242.85
2022-08-28T20:01:43.364Z,95247.08
2022-08-28T20:04:17.483Z,95245.27
2022-08-28T20:06:55.166Z,95244.59
2022-08-28T20:09:25.565Z,95243.11
2022-08-28T20:12:04.451Z,95243.73
2022-08-28T20:14:42.681Z,95243.92
2022-08-28T20:17:17.451Z,95247.45
2022-08-28T20:19:50.361Z,95251.02
2022-08-28T20:22:23.393Z,95252.94
2022-08-28T20:24:57.905Z,95250.23
2022-08-28T20:27:27.537Z,95253.59
2022-08-28T20:29:59.123Z,95256.38
2022-08-28T20:32:44.427Z,95254.14
2022-08-28T20:35:19.213Z,95265.14
2022-08-28T20:37:54.421Z,95266.02
2022-08-28T20:40:25.411Z,95265.53
2022-08-28T20:43:05.582Z,95266.02
2022-08-28T20:45:38.515Z,95267.20
2022-08-28T20:48:13.736Z,95266.38
2022-08-28T20:50:43.172Z,95272.39
2022-08-28T20:53:27.261Z,95273.26
2022-08-28T20:56:11.171Z,95269.39
2022-08-28T20:58:44.297Z,95267.90
2022-08-28T21:01:18.386Z,95263.30
2022-08-28T21:03:47.985Z,95265.58
2022-08-28T21:06:17.759Z,95266.20
2022-08-28T21:08:55.897Z,95268.85
2022-08-28T21:11:24.771Z,95275.32
2022-08-28T21:13:56.054Z,95271.92
2022-08-28T21:16:27.817Z,95274.69
2022-08-28T21:19:15.931Z,95269.61
2022-08-28T21:21:49.793Z,95270.36
2022-08-28T21:24:21.235Z,95268.64
2022-08-28T21:26:59.343Z,95271.60
2022-08-28T21:29:31.462Z,95275.20
2022-08-28T21:32:00.553Z,95272.85
2022-08-28T21:34:30.427Z,95273.52
2022-08-28T21:37:00.148Z,95274.88
2022-08-28T21:39:31.363Z,95276.01
2022-08-28T21:42:04.335Z,95274.33
2022-08-28T21:44:40.392Z,95274.52
2022-08-28T21:47:19.985Z,95275.79
2022-08-28T21:49:50.302Z,95273.80
2022-08-28T21:52:25.844Z,95279.30
2022-08-28T21:55:07.465Z,95282.02
2022-08-28T21:57:42.450Z,95279.95
2022-08-28T22:00:28.527Z,95284.08
2022-08-28T22:02:57.575Z,95287.31
2022-08-28T22:05:28.630Z,95287.00
2022-08-28T22:08:03.326Z,95285.83
2022-08-28T22:10:38.624Z,95284.08
2022-08-28T22:13:11.959Z,95281.20
2022-08-28T22:15:45.037Z,95276.08
2022-08-28T22:18:19.034Z,95279.20
2022-08-28T22:21:09.172Z,95277.89
2022-08-28T22:23:40.164Z,95273.09
2022-08-28T22:26:17.628Z,95275.72
2022-08-28T22:28:53.241Z,95282.44
2022-08-28T22:31:26.627Z,95289.90
2022-08-28T22:33:58.032Z,95308.77
2022-08-28T22:36:29.220Z,95310.80
2022-08-28T22:39:01.306Z,95310.36
2022-08-28T22:41:31.722Z,95314.91
2022-08-28T22:44:07.025Z,95319.20
2022-08-28T22:46:41.880Z,95318.85
2022-08-28T22:49:11.217Z,95319.14
2022-08-28T22:51:45.949Z,95314.85
2022-08-28T22:54:19.089Z,95319.46
2022-08-28T22:56:54.069Z,95315.61
2022-08-28T22:59:28.130Z,95321.59
2022-08-28T23:02:04.476Z,95320.84
2022-08-28T23:04:44.069Z,95324.92
2022-08-28T23:07:18.960Z,95323.61
2022-08-28T23:09:50.446Z,95320.70
2022-08-28T23:12:23.508Z,95327.81
2022-08-28T23:14:53.453Z,95338.89
2022-08-28T23:17:24.046Z,95340.16
2022-08-28T23:19:57.529Z,95334.92
2022-08-28T23:22:31.645Z,95338.10
2022-08-28T23:25:08.087Z,95341.30
2022-08-28T23:27:39.627Z,95340.34
2022-08-28T23:30:12.282Z,95338.32
2022-08-28T23:32:47.856Z,95335.32
2022-08-28T23:35:17.788Z,95331.42
2022-08-28T23:37:52.841Z,95338.32
2022-08-28T23:40:25.776Z,95341.61
2022-08-28T23:42:58.522Z,95341.95
2022-08-28T23:45:29.401Z,95346.18
2022-08-28T23:48:01.263Z,95350.00
2022-08-28T23:50:32.960Z,95351.52
2022-08-28T23:53:07.613Z,95345.63
2022-08-28T23:55:41.892Z,95343.39
2022-08-28T23:58:12.834Z,95342.84
